createdAt,value
2018-08-27T00:01:07.282Z,2.20
2018-08-27T00:03:35.968Z,2.50
2018-08-27T00:06:04.744Z,2.30
2018-08-27T00:08:33.446Z,2.20
2018-08-27T00:11:02.148Z,2.03
2018-08-27T00:13:30.806Z,1.90
2018-08-27T00:15:59.524Z,2.03
2018-08-27T00:18:28.293Z,2.00
2018-08-27T00:20:56.900Z,2.33
2018-08-27T00:23:25.584Z,2.40
2018-08-27T00:25:54.278Z,2.03
2018-08-27T00:28:22.955Z,2.40
2018-08-27T00:30:51.633Z,2.10
2018-08-27T00:33:20.337Z,2.30
2018-08-27T00:35:49.095Z,2.23
2018-08-27T00:38:17.796Z,2.30
2018-08-27T00:40:46.467Z,2.37
2018-08-27T00:43:15.169Z,2.20
2018-08-27T00:45:43.831Z,2.40
2018-08-27T00:48:12.453Z,2.40
2018-08-27T00:50:41.129Z,2.30
2018-08-27T00:53:10.060Z,2.20
2018-08-27T00:55:39.588Z,2.57
2018-08-27T00:58:08.272Z,2.50
2018-08-27T01:00:36.992Z,2.53
2018-08-27T01:03:05.719Z,2.30
2018-08-27T01:05:34.446Z,2.40
2018-08-27T01:08:03.259Z,2.57
2018-08-27T01:10:31.890Z,2.50
2018-08-27T01:13:00.534Z,2.50
2018-08-27T01:15:29.177Z,2.70
2018-08-27T01:17:57.822Z,2.80
2018-08-27T01:20:26.467Z,2.40
2018-08-27T01:22:55.069Z,2.60
2018-08-27T01:25:23.747Z,2.90
2018-08-27T01:27:52.409Z,2.70
2018-08-27T01:30:21.098Z,3.00
2018-08-27T01:32:49.838Z,2.90
2018-08-27T01:35:18.388Z,3.40
2018-08-27T01:37:47.174Z,3.03
2018-08-27T01:40:15.804Z,3.20
2018-08-27T01:42:44.530Z,3.40
2018-08-27T01:45:13.210Z,3.33
2018-08-27T01:47:41.870Z,3.57
2018-08-27T01:50:10.571Z,3.60
2018-08-27T01:52:39.177Z,3.53
2018-08-27T01:55:07.843Z,3.67
2018-08-27T01:57:36.531Z,3.57
2018-08-27T02:00:05.611Z,3.90
2018-08-27T02:02:34.323Z,3.87
2018-08-27T02:05:02.970Z,3.90
2018-08-27T02:07:31.557Z,3.70
2018-08-27T02:10:00.232Z,3.87
2018-08-27T02:12:28.806Z,4.00
2018-08-27T02:14:57.416Z,4.03
2018-08-27T02:17:26.081Z,3.80
2018-08-27T02:19:54.692Z,4.30
2018-08-27T02:22:23.365Z,3.97
2018-08-27T02:24:51.944Z,4.40
2018-08-27T02:27:20.597Z,4.20
2018-08-27T02:29:49.202Z,4.00
2018-08-27T02:32:17.879Z,3.90
2018-08-27T02:34:46.434Z,4.40
2018-08-27T02:37:15.717Z,3.87
2018-08-27T02:39:44.407Z,3.83
2018-08-27T02:42:13.075Z,4.47
2018-08-27T02:44:41.883Z,4.13
2018-08-27T02:47:10.520Z,4.30
2018-08-27T02:49:39.272Z,4.17
2018-08-27T02:52:07.956Z,4.40
2018-08-27T02:54:36.573Z,5.00
2018-08-27T02:57:05.280Z,4.60
2018-08-27T02:59:34.012Z,4.33
2018-08-27T03:02:02.626Z,4.40
2018-08-27T03:04:31.203Z,4.50
2018-08-27T03:06:59.807Z,4.40
2018-08-27T03:09:28.477Z,4.30
2018-08-27T03:11:57.223Z,4.13
2018-08-27T03:14:25.941Z,4.30
2018-08-27T03:16:54.559Z,4.50
2018-08-27T03:19:23.135Z,4.63
2018-08-27T03:21:51.773Z,5.07
2018-08-27T03:24:20.419Z,5.23
2018-08-27T03:26:49.081Z,5.00
2018-08-27T03:29:17.763Z,5.00
2018-08-27T03:31:46.389Z,5.87
2018-08-27T03:34:15.050Z,5.37
2018-08-27T03:36:43.714Z,5.87
2018-08-27T03:39:13.128Z,6.07
2018-08-27T03:41:41.739Z,6.70
2018-08-27T03:44:10.476Z,6.33
2018-08-27T03:46:39.116Z,6.40
2018-08-27T03:49:07.730Z,6.67
2018-08-27T03:51:36.376Z,6.30
2018-08-27T03:54:05.027Z,6.67
2018-08-27T03:56:33.652Z,7.07
2018-08-27T03:59:02.306Z,7.00
2018-08-27T04:01:30.880Z,7.63
2018-08-27T04:03:59.565Z,7.60
2018-08-27T04:06:28.176Z,7.67
2018-08-27T04:08:56.919Z,7.23
2018-08-27T04:11:25.605Z,7.90
2018-08-27T04:13:54.283Z,7.60
2018-08-27T04:16:23.000Z,7.90
2018-08-27T04:18:51.689Z,7.53
2018-08-27T04:21:20.354Z,7.87
2018-08-27T04:23:48.961Z,7.87
2018-08-27T04:26:17.646Z,8.70
2018-08-27T04:28:46.347Z,8.43
2018-08-27T04:31:14.907Z,7.73
2018-08-27T04:33:43.572Z,8.03
2018-08-27T04:36:12.242Z,7.90
2018-08-27T04:38:40.842Z,8.77
2018-08-27T04:41:09.516Z,8.80
2018-08-27T04:43:38.134Z,9.20
2018-08-27T04:46:06.813Z,9.53
2018-08-27T04:48:35.433Z,9.30
2018-08-27T04:51:04.208Z,9.77
2018-08-27T04:53:32.782Z,9.40
2018-08-27T04:56:01.418Z,9.43
2018-08-27T04:58:33.191Z,9.63
2018-08-27T05:01:01.904Z,9.43
2018-08-27T05:03:30.612Z,10.23
2018-08-27T05:05:59.354Z,9.43
2018-08-27T05:08:28.026Z,9.67
2018-08-27T05:10:57.196Z,9.47
2018-08-27T05:13:25.930Z,9.83
2018-08-27T05:15:54.756Z,10.33
2018-08-27T05:18:23.470Z,10.87
2018-08-27T05:20:52.181Z,10.13
2018-08-27T05:23:20.886Z,10.70
2018-08-27T05:25:49.551Z,10.83
2018-08-27T05:28:18.191Z,11.87
2018-08-27T05:30:46.893Z,11.00
2018-08-27T05:33:15.557Z,11.63
2018-08-27T05:35:44.361Z,12.03
2018-08-27T05:38:13.212Z,11.93
2018-08-27T05:40:41.869Z,11.60
2018-08-27T05:43:10.585Z,10.73
2018-08-27T05:45:39.407Z,11.43
2018-08-27T05:48:08.185Z,11.93
2018-08-27T05:50:36.904Z,11.33
2018-08-27T05:53:05.645Z,11.80
2018-08-27T05:55:34.422Z,11.37
2018-08-27T05:58:03.142Z,11.33
2018-08-27T06:00:31.941Z,11.77
2018-08-27T06:03:00.570Z,12.13
2018-08-27T06:05:29.289Z,11.27
2018-08-27T06:07:57.996Z,11.80
2018-08-27T06:10:27.545Z,11.07
2018-08-27T06:12:56.162Z,11.00
2018-08-27T06:15:24.877Z,11.60
2018-08-27T06:17:53.523Z,10.70
2018-08-27T06:20:23.807Z,10.97
2018-08-27T06:22:52.476Z,10.53
2018-08-27T06:25:21.133Z,9.97
2018-08-27T06:27:49.737Z,10.57
2018-08-27T06:30:18.373Z,10.60
2018-08-27T06:32:47.091Z,9.93
2018-08-27T06:35:15.808Z,10.27
2018-08-27T06:37:45.048Z,9.43
2018-08-27T06:40:13.777Z,9.83
2018-08-27T06:42:42.535Z,9.60
2018-08-27T06:45:11.350Z,9.33
2018-08-27T06:47:40.154Z,9.20
2018-08-27T06:50:09.006Z,9.13
2018-08-27T06:52:37.784Z,8.50
2018-08-27T06:55:06.660Z,8.70
2018-08-27T06:57:35.302Z,8.47
2018-08-27T07:00:04.085Z,8.67
2018-08-27T07:02:32.771Z,8.17
2018-08-27T07:05:01.367Z,8.23
2018-08-27T07:07:29.940Z,7.33
2018-08-27T07:09:58.528Z,6.63
2018-08-27T07:12:27.401Z,6.57
2018-08-27T07:14:56.083Z,6.57
2018-08-27T07:17:24.723Z,6.50
2018-08-27T07:19:53.327Z,6.13
2018-08-27T07:22:21.976Z,7.97
2018-08-27T07:24:50.634Z,7.17
2018-08-27T07:27:19.330Z,7.23
2018-08-27T07:29:47.883Z,7.30
2018-08-27T07:32:16.564Z,7.70
2018-08-27T07:34:45.261Z,8.40
2018-08-27T07:37:13.861Z,7.70
2018-08-27T07:39:42.454Z,8.33
2018-08-27T07:42:11.103Z,7.83
2018-08-27T07:44:39.843Z,8.47
2018-08-27T07:47:08.541Z,8.97
2018-08-27T07:49:37.205Z,8.33
2018-08-27T07:52:05.849Z,8.67
2018-08-27T07:54:34.519Z,8.80
2018-08-27T07:57:03.217Z,9.00
2018-08-27T07:59:31.878Z,13.80
2018-08-27T08:02:00.530Z,11.00
2018-08-27T08:04:29.239Z,9.03
2018-08-27T08:06:57.816Z,6.33
2018-08-27T08:09:26.580Z,5.57
2018-08-27T08:11:55.486Z,6.30
2018-08-27T08:14:24.174Z,6.13
2018-08-27T08:16:52.986Z,6.03
2018-08-27T08:19:21.676Z,6.23
2018-08-27T08:21:50.271Z,6.03
2018-08-27T08:24:18.970Z,7.50
2018-08-27T08:26:47.595Z,6.70
2018-08-27T08:29:16.267Z,6.47
2018-08-27T08:31:44.910Z,7.20
2018-08-27T08:34:13.547Z,7.23
2018-08-27T08:36:42.176Z,6.93
2018-08-27T08:39:10.848Z,7.33
2018-08-27T08:41:39.454Z,7.23
2018-08-27T08:44:08.120Z,7.47
2018-08-27T08:46:36.769Z,7.70
2018-08-27T08:49:05.416Z,8.13
2018-08-27T08:51:34.628Z,8.23
2018-08-27T08:54:03.270Z,8.73
2018-08-27T08:56:31.948Z,9.17
2018-08-27T08:59:00.542Z,9.40
2018-08-27T09:01:29.212Z,9.93
2018-08-27T09:03:57.878Z,8.60
2018-08-27T09:06:26.778Z,7.83
2018-08-27T09:08:55.446Z,7.20
2018-08-27T09:11:24.182Z,6.57
2018-08-27T09:13:52.809Z,6.30
2018-08-27T09:16:21.540Z,6.97
2018-08-27T09:18:50.235Z,7.10
2018-08-27T09:21:18.821Z,6.07
2018-08-27T09:23:47.511Z,6.50
2018-08-27T09:26:16.049Z,5.73
2018-08-27T09:28:44.698Z,5.53
2018-08-27T09:31:13.384Z,5.33
2018-08-27T09:33:42.068Z,4.13
2018-08-27T09:36:10.685Z,4.57
2018-08-27T09:38:39.346Z,4.17
2018-08-27T09:41:08.081Z,4.67
2018-08-27T09:43:36.735Z,4.20
2018-08-27T09:46:05.353Z,4.43
2018-08-27T09:48:34.032Z,3.80
2018-08-27T09:51:02.686Z,3.97
2018-08-27T09:53:31.325Z,4.10
2018-08-27T09:56:00.011Z,3.80
2018-08-27T09:58:28.829Z,4.07
2018-08-27T10:01:02.677Z,4.00
2018-08-27T10:03:31.397Z,3.87
2018-08-27T10:06:00.089Z,3.80
2018-08-27T10:08:28.733Z,3.70
2018-08-27T10:10:57.451Z,3.83
2018-08-27T10:13:26.497Z,3.70
2018-08-27T10:15:55.211Z,3.93
2018-08-27T10:18:23.849Z,3.83
2018-08-27T10:20:53.773Z,3.90
2018-08-27T10:23:22.517Z,3.67
2018-08-27T10:25:51.162Z,3.37
2018-08-27T10:28:19.762Z,3.40
2018-08-27T10:30:48.368Z,3.57
2018-08-27T10:33:17.102Z,3.37
2018-08-27T10:35:45.775Z,3.70
2018-08-27T10:38:14.407Z,3.57
2018-08-27T10:40:43.044Z,4.23
2018-08-27T10:43:11.781Z,3.73
2018-08-27T10:45:40.689Z,4.00
2018-08-27T10:48:09.253Z,4.20
2018-08-27T10:50:37.929Z,4.13
2018-08-27T10:53:06.667Z,4.10
2018-08-27T10:55:36.043Z,3.80
2018-08-27T10:58:04.726Z,3.80
2018-08-27T11:00:33.431Z,3.47
2018-08-27T11:03:02.153Z,3.30
2018-08-27T11:05:30.776Z,3.80
2018-08-27T11:07:59.816Z,3.83
2018-08-27T11:10:28.620Z,3.40
2018-08-27T11:12:57.302Z,3.10
2018-08-27T11:15:26.078Z,2.90
2018-08-27T11:17:54.756Z,3.30
2018-08-27T11:20:23.575Z,3.60
2018-08-27T11:22:52.125Z,3.17
2018-08-27T11:25:20.803Z,3.10
2018-08-27T11:27:49.501Z,3.03
2018-08-27T11:30:18.288Z,3.27
2018-08-27T11:32:46.895Z,3.70
2018-08-27T11:35:15.699Z,3.30
2018-08-27T11:37:44.335Z,3.30
2018-08-27T11:40:13.037Z,3.10
2018-08-27T11:42:43.124Z,3.30
2018-08-27T11:45:11.944Z,2.80
2018-08-27T11:47:40.632Z,3.10
2018-08-27T11:50:10.136Z,3.13
2018-08-27T11:52:38.838Z,3.10
2018-08-27T11:55:08.990Z,3.00
2018-08-27T11:57:37.819Z,2.90
2018-08-27T12:00:09.281Z,2.80
2018-08-27T12:02:37.951Z,3.13
2018-08-27T12:05:06.716Z,3.00
2018-08-27T12:07:35.371Z,2.73
2018-08-27T12:10:04.064Z,2.80
2018-08-27T12:12:33.700Z,2.83
2018-08-27T12:15:02.349Z,3.47
2018-08-27T12:17:31.031Z,3.60
2018-08-27T12:19:59.837Z,3.03
2018-08-27T12:22:28.513Z,3.17
2018-08-27T12:24:57.225Z,3.73
2018-08-27T12:27:25.946Z,3.20
2018-08-27T12:29:54.638Z,3.43
2018-08-27T12:32:23.325Z,3.43
2018-08-27T12:34:52.128Z,3.90
2018-08-27T12:37:20.913Z,3.40
2018-08-27T12:39:49.768Z,3.60
2018-08-27T12:42:19.830Z,3.50
2018-08-27T12:44:48.815Z,3.93
2018-08-27T12:47:19.233Z,3.23
2018-08-27T12:49:48.045Z,3.63
2018-08-27T12:52:16.731Z,3.23
2018-08-27T12:54:45.587Z,3.90
2018-08-27T12:57:14.429Z,3.97
2018-08-27T12:59:43.505Z,3.60
2018-08-27T13:02:12.423Z,4.10
2018-08-27T13:04:41.155Z,4.33
2018-08-27T13:07:09.859Z,3.93
2018-08-27T13:09:38.495Z,4.30
2018-08-27T13:12:08.562Z,4.67
2018-08-27T13:14:37.235Z,4.50
2018-08-27T13:17:06.117Z,4.60
2018-08-27T13:19:34.811Z,4.10
2018-08-27T13:22:03.544Z,4.60
2018-08-27T13:24:32.560Z,4.60
2018-08-27T13:27:01.374Z,4.67
2018-08-27T13:29:30.026Z,4.67
2018-08-27T13:31:58.708Z,4.40
2018-08-27T13:34:27.758Z,4.77
2018-08-27T13:36:56.580Z,4.17
2018-08-27T13:39:25.509Z,4.17
2018-08-27T13:41:54.199Z,3.80
2018-08-27T13:44:23.060Z,4.00
2018-08-27T13:46:51.958Z,4.40
2018-08-27T13:49:20.999Z,4.00
2018-08-27T13:51:54.013Z,4.20
2018-08-27T13:54:22.791Z,4.43
2018-08-27T13:56:51.394Z,4.40
2018-08-27T13:59:20.338Z,4.90
2018-08-27T14:01:49.117Z,4.30
2018-08-27T14:04:18.333Z,4.80
2018-08-27T14:06:48.640Z,5.03
2018-08-27T14:09:17.740Z,4.87
2018-08-27T14:11:46.957Z,5.10
2018-08-27T14:14:15.665Z,5.10
2018-08-27T14:16:44.494Z,4.97
2018-08-27T14:19:13.519Z,5.00
2018-08-27T14:21:42.918Z,5.67
2018-08-27T14:24:11.722Z,5.57
2018-08-27T14:26:40.646Z,5.37
2018-08-27T14:29:09.356Z,5.20
2018-08-27T14:31:38.250Z,5.83
2018-08-27T14:34:08.174Z,5.87
2018-08-27T14:36:36.853Z,6.30
2018-08-27T14:39:08.146Z,5.70
2018-08-27T14:41:36.767Z,6.00
2018-08-27T14:44:06.097Z,5.70
2018-08-27T14:46:34.843Z,5.73
2018-08-27T14:49:04.490Z,5.23
2018-08-27T14:51:33.277Z,5.50
2018-08-27T14:54:01.998Z,5.60
2018-08-27T14:56:31.209Z,5.87
2018-08-27T14:58:59.906Z,5.47
2018-08-27T15:01:28.640Z,5.67
2018-08-27T15:03:57.421Z,5.73
2018-08-27T15:06:26.914Z,5.80
2018-08-27T15:08:55.550Z,5.73
2018-08-27T15:11:24.901Z,6.17
2018-08-27T15:13:53.889Z,6.47
2018-08-27T15:16:22.665Z,5.97
2018-08-27T15:18:52.271Z,6.37
2018-08-27T15:21:21.284Z,6.67
2018-08-27T15:23:49.918Z,6.37
2018-08-27T15:26:19.131Z,6.83
2018-08-27T15:28:47.794Z,6.37
2018-08-27T15:31:16.746Z,6.67
2018-08-27T15:33:45.763Z,6.63
2018-08-27T15:36:15.013Z,6.57
2018-08-27T15:38:43.868Z,6.37
2018-08-27T15:41:12.690Z,6.90
2018-08-27T15:43:41.700Z,7.10
2018-08-27T15:46:16.003Z,6.80
2018-08-27T15:48:44.992Z,6.60
2018-08-27T15:51:13.814Z,6.10
2018-08-27T15:53:42.948Z,5.87
2018-08-27T15:56:11.787Z,5.70
2018-08-27T15:58:40.441Z,5.70
2018-08-27T16:01:12.387Z,5.20
2018-08-27T16:03:42.170Z,4.80
2018-08-27T16:06:12.049Z,5.63
2018-08-27T16:08:42.161Z,4.53
2018-08-27T16:11:10.901Z,4.77
2018-08-27T16:13:40.540Z,4.20
2018-08-27T16:16:10.513Z,4.50
2018-08-27T16:18:40.827Z,4.07
2018-08-27T16:21:10.377Z,3.83
2018-08-27T16:23:39.525Z,3.83
2018-08-27T16:26:09.592Z,3.80
2018-08-27T16:28:38.888Z,3.50
2018-08-27T16:31:08.160Z,4.33
2018-08-27T16:33:37.189Z,3.77
2018-08-27T16:36:06.157Z,3.70
2018-08-27T16:38:35.368Z,3.50
2018-08-27T16:41:04.409Z,3.97
2018-08-27T16:43:33.644Z,3.70
2018-08-27T16:46:03.259Z,3.50
2018-08-27T16:48:32.627Z,3.03
2018-08-27T16:51:01.627Z,3.60
2018-08-27T16:53:30.641Z,3.10
2018-08-27T16:56:00.729Z,3.13
2018-08-27T16:58:30.289Z,3.00
2018-08-27T17:00:58.842Z,2.50
2018-08-27T17:03:27.508Z,2.57
2018-08-27T17:05:56.514Z,2.50
2018-08-27T17:08:25.544Z,2.50
2018-08-27T17:10:54.426Z,2.60
2018-08-27T17:13:23.109Z,2.47
2018-08-27T17:15:52.092Z,2.23
2018-08-27T17:18:21.026Z,2.53
2018-08-27T17:20:49.692Z,2.40
2018-08-27T17:23:18.856Z,2.40
2018-08-27T17:25:47.556Z,2.30
2018-08-27T17:28:16.229Z,2.00
2018-08-27T17:30:45.047Z,2.10
2018-08-27T17:33:13.965Z,2.50
2018-08-27T17:35:42.879Z,2.10
2018-08-27T17:38:11.785Z,2.17
2018-08-27T17:40:40.937Z,2.70
2018-08-27T17:43:09.776Z,3.30
2018-08-27T17:45:38.698Z,3.60
2018-08-27T17:48:07.329Z,3.00
2018-08-27T17:50:36.382Z,3.20
2018-08-27T17:53:05.332Z,2.57
2018-08-27T17:55:34.446Z,2.60
2018-08-27T17:58:03.198Z,3.63
2018-08-27T18:00:32.119Z,2.97
2018-08-27T18:03:00.792Z,3.07
2018-08-27T18:05:29.750Z,2.60
2018-08-27T18:07:58.694Z,3.20
2018-08-27T18:10:27.622Z,2.90
2018-08-27T18:12:56.620Z,3.47
2018-08-27T18:15:26.310Z,3.23
2018-08-27T18:17:55.162Z,3.60
2018-08-27T18:20:24.276Z,3.53
2018-08-27T18:22:53.330Z,3.50
2018-08-27T18:25:22.216Z,4.00
2018-08-27T18:27:52.102Z,4.47
2018-08-27T18:30:21.435Z,4.40
2018-08-27T18:32:50.151Z,4.60
2018-08-27T18:35:18.899Z,4.67
2018-08-27T18:37:47.886Z,4.30
2018-08-27T18:40:16.869Z,4.00
2018-08-27T18:42:46.238Z,4.07
2018-08-27T18:45:15.571Z,4.83
2018-08-27T18:47:45.425Z,4.10
2018-08-27T18:50:14.144Z,4.37
2018-08-27T18:52:42.998Z,4.60
2018-08-27T18:55:11.734Z,4.10
2018-08-27T18:57:40.747Z,4.20
2018-08-27T19:00:10.100Z,4.80
2018-08-27T19:02:39.363Z,3.83
2018-08-27T19:05:08.566Z,4.47
2018-08-27T19:07:37.903Z,4.80
2018-08-27T19:10:07.303Z,4.17
2018-08-27T19:12:36.398Z,4.10
2018-08-27T19:15:05.495Z,3.60
2018-08-27T19:17:34.659Z,4.43
2018-08-27T19:20:04.031Z,4.13
2018-08-27T19:22:33.098Z,4.30
2018-08-27T19:25:02.710Z,4.37
2018-08-27T19:27:32.215Z,4.23
2018-08-27T19:30:01.227Z,3.70
2018-08-27T19:32:30.192Z,3.97
2018-08-27T19:34:59.668Z,4.17
2018-08-27T19:37:28.582Z,3.93
2018-08-27T19:39:57.589Z,3.33
2018-08-27T19:42:26.801Z,3.50
2018-08-27T19:44:56.100Z,3.80
2018-08-27T19:47:25.289Z,3.77
2018-08-27T19:49:54.370Z,3.60
2018-08-27T19:52:23.109Z,3.27
2018-08-27T19:54:51.834Z,3.67
2018-08-27T19:57:20.591Z,3.83
2018-08-27T19:59:49.456Z,3.30
2018-08-27T20:02:18.163Z,3.50
2018-08-27T20:04:47.239Z,3.27
2018-08-27T20:07:15.915Z,3.30
2018-08-27T20:09:44.587Z,3.20
2018-08-27T20:12:13.757Z,3.40
2018-08-27T20:14:42.551Z,3.67
2018-08-27T20:17:11.289Z,3.90
2018-08-27T20:19:40.286Z,3.20
2018-08-27T20:22:09.473Z,3.33
2018-08-27T20:24:38.454Z,3.20
2018-08-27T20:27:07.247Z,3.10
2018-08-27T20:29:36.554Z,3.07
2018-08-27T20:32:05.428Z,3.30
2018-08-27T20:34:34.218Z,3.50
2018-08-27T20:37:03.098Z,3.10
2018-08-27T20:39:31.900Z,2.90
2018-08-27T20:42:00.515Z,3.00
2018-08-27T20:44:29.907Z,3.00
2018-08-27T20:46:58.589Z,3.07
2018-08-27T20:49:27.289Z,2.93
2018-08-27T20:51:55.967Z,2.80
2018-08-27T20:54:24.808Z,2.90
2018-08-27T20:56:53.513Z,3.00
2018-08-27T20:59:22.197Z,2.80
2018-08-27T21:01:50.925Z,3.10
2018-08-27T21:04:19.703Z,3.30
2018-08-27T21:06:48.408Z,2.97
2018-08-27T21:09:17.104Z,2.83
2018-08-27T21:11:45.800Z,3.07
2018-08-27T21:14:26.128Z,3.10
2018-08-27T21:16:54.828Z,3.70
2018-08-27T21:19:23.538Z,3.20
2018-08-27T21:21:52.327Z,3.43
2018-08-27T21:24:21.086Z,3.37
2018-08-27T21:26:49.854Z,3.07
2018-08-27T21:29:18.562Z,3.43
2018-08-27T21:31:47.229Z,3.73
2018-08-27T21:34:15.950Z,3.63
2018-08-27T21:36:44.614Z,3.43
2018-08-27T21:39:13.289Z,3.17
2018-08-27T21:41:42.012Z,3.67
2018-08-27T21:44:10.696Z,3.63
2018-08-27T21:46:39.530Z,3.93
2018-08-27T21:49:08.112Z,3.63
2018-08-27T21:51:36.827Z,3.30
2018-08-27T21:54:05.745Z,3.43
2018-08-27T21:56:34.511Z,3.70
2018-08-27T21:59:03.373Z,3.63
2018-08-27T22:01:32.062Z,3.80
2018-08-27T22:04:06.154Z,3.47
2018-08-27T22:06:34.858Z,3.30
2018-08-27T22:09:03.812Z,3.60
2018-08-27T22:11:32.642Z,3.27
2018-08-27T22:14:01.350Z,3.63
2018-08-27T22:16:30.099Z,3.43
2018-08-27T22:18:58.899Z,3.30
2018-08-27T22:21:27.926Z,3.53
2018-08-27T22:23:56.748Z,3.53
2018-08-27T22:26:25.654Z,3.47
2018-08-27T22:28:54.351Z,3.60
2018-08-27T22:31:22.931Z,3.70
2018-08-27T22:33:51.596Z,3.70
2018-08-27T22:36:20.285Z,3.70
2018-08-27T22:38:49.028Z,3.50
2018-08-27T22:41:17.619Z,3.60
2018-08-27T22:43:46.289Z,3.77
2018-08-27T22:46:14.937Z,3.67
2018-08-27T22:48:43.659Z,3.70
2018-08-27T22:51:12.335Z,3.97
2018-08-27T22:53:40.995Z,3.87
2018-08-27T22:56:09.653Z,3.67
2018-08-27T22:58:38.382Z,3.90
2018-08-27T23:01:07.101Z,3.80
2018-08-27T23:03:41.084Z,3.80
2018-08-27T23:06:09.731Z,4.13
2018-08-27T23:08:38.444Z,4.07
2018-08-27T23:11:07.078Z,4.30
2018-08-27T23:13:35.760Z,4.53
2018-08-27T23:16:08.654Z,4.03
2018-08-27T23:18:37.406Z,4.33
2018-08-27T23:21:06.156Z,4.50
2018-08-27T23:23:34.791Z,4.10
2018-08-27T23:26:03.381Z,4.40
2018-08-27T23:28:32.043Z,4.80
2018-08-27T23:31:00.677Z,4.63
2018-08-27T23:33:29.325Z,4.43
2018-08-27T23:35:58.031Z,4.53
2018-08-27T23:38:26.708Z,4.30
2018-08-27T23:40:55.354Z,5.10
2018-08-27T23:43:24.144Z,4.90
2018-08-27T23:45:52.862Z,5.13
2018-08-27T23:48:21.606Z,4.97
2018-08-27T23:50:50.335Z,4.97
2018-08-27T23:53:19.038Z,4.90
2018-08-27T23:55:47.818Z,4.90
2018-08-27T23:58:16.748Z,4.87
